• Join FlightAware (Why Join?)
  • Login
  • US Flag 
04:27AM EST


 

Airport Tracker/Info


-or-


 

Live Flight TrackerFlight Track Log ✈ LXJ541 ✈ 18-Apr-2013 ✈ KPBI - KCHO

Flight Track Log - Related Links

Times and Time Zones

All times are in EDT time to prevent confusion due to time zone crossing. See the LXJ541 flight status page for this flight to view local times or setup timezone preferences in your user account.

Time Position Orientation Groundspeed Altitude Reporting Facility
EDT Latitude Longitude Course Direction KTS MPH feet Rate Location/Type
12:22PM 26.6836 -80.0025 61° Northeast 251 289 4,700  Level Miami Center
12:23PM 26.7286 -79.9547 43° Northeast 278 320 8,600 3,420 Climbing Miami Center
12:24PM 26.8031 -79.8847 40° Northeast 286 329 11,600 2,400 Climbing Miami Center
12:25PM 26.8675 -79.7956 51° Northeast 338 389 13,500 1,200 Climbing Miami Center
12:26PM 26.9256 -79.7083 53° Northeast 381 438 14,000 360 Climbing Miami Center
12:27PM 26.9881 -79.6119 54° Northeast 390 449 14,300 1,560 Climbing Miami Center
12:28PM 27.0747 -79.4506 61° Northeast  Level FlightAware Approximate
12:28PM 27.0589 -79.5042 54° Northeast 385 443 17,200  Level Miami Center
12:29PM 27.1236 -79.4006 55° Northeast 385 443 19,500 2,340 Climbing Miami Center
12:30PM 27.1878 -79.3061 53° Northeast 410 472 21,900 1,860 Climbing Miami Center
12:31PM 27.2586 -79.1956 54° Northeast 433 498 23,300 2,040 Climbing Miami Center
12:32PM 27.3400 -79.0686 54° Northeast 451 519 26,000 2,280 Climbing Miami Center
12:33PM 27.4228 -78.9625 49° Northeast 456 525 27,900 1,800 Climbing Miami Center
12:34PM 27.5486 -78.9297 13° North 433 498 29,700 1,740 Climbing Miami Center
12:35PM 27.6617 -78.9153 North 438 504 31,400 1,740 Climbing Miami Center
12:36PM 27.7872 -78.8989 North 454 522 33,200 1,800 Climbing Miami Center
12:37PM 27.9253 -78.8800 North 460 529 35,100 1,800 Climbing Miami Center
12:38PM 28.0486 -78.8611 North 455 524 36,800 900 Climbing Miami Center
12:39PM 28.1678 -78.8444 North 441 507 37,000 60 Climbing Miami Center
12:40PM 28.2956 -78.8278 North 441 507 37,000  Level Miami Center
12:41PM 28.4189 -78.8086 North 446 513 37,000  Level Miami Center
12:42PM 28.5403 -78.7919 North 446 513 37,000  Level Miami Center
12:43PM 28.6531 -78.7750 North 447 514 37,000  Level Miami Center
12:44PM 28.7786 -78.7606 North 447 514 37,000  Level Miami Center
12:45PM 28.9039 -78.7414 North 447 514 37,000  Level Miami Center
12:46PM 29.0272 -78.7244 North 447 514 37,000  Level Miami Center
12:47PM 29.1464 -78.7025 North 441 507 37,000  Level Miami Center
12:48PM 29.2761 -78.6858 North 451 519 37,000  Level Miami Center
12:49PM 29.4014 -78.6689 North 451 519 37,000  Level Miami Center
12:50PM 29.5247 -78.6494 North 452 520 37,000  Level Miami Center
12:52PM 29.7336 -78.6211 North 443 510 37,000  Level Jacksonville Center
12:53PM 29.8539 -78.5992 North 443 510 37,000 420 Level Jacksonville Center
12:54PM 29.9850 -78.5836 North 454 522 37,900 1,380 Climbing Jacksonville Center
12:55PM 30.1033 -78.5639 North 449 517 39,800 1,500 Climbing Jacksonville Center
12:56PM 30.2322 -78.5486 North 428 493 41,000 600 Climbing Jacksonville Center
12:57PM 30.3464 -78.5289 North 418 481 41,000  Level Jacksonville Center
12:58PM 30.4750 -78.5111 North 434 499 41,000  Level Jacksonville Center
12:59PM 30.5933 -78.4911 North 440 506 41,000  Level Jacksonville Center
01:00PM 30.7181 -78.4733 North 440 506 41,000  Level Jacksonville Center
01:01PM 30.8406 -78.4531 North 440 506 41,000  Level Jacksonville Center
01:02PM 30.9544 -78.4331 North 433 498 41,000  Level Jacksonville Center
01:03PM 31.0769 -78.4128 North 433 498 41,000  Level Jacksonville Center
01:04PM 31.1956 -78.3975 North 433 498 41,000  Level Jacksonville Center
01:05PM 31.3178 -78.3769 North 433 498 41,000  Level Jacksonville Center
01:06PM 31.4422 -78.3539 North 433 498 41,000  Level Jacksonville Center
01:07PM 31.5628 -78.3358 North 441 507 41,000  Level Jacksonville Center
01:08PM 31.6850 -78.3153 North 441 507 41,000  Level Jacksonville Center
01:09PM 31.8075 -78.2919 North 441 507 41,000  Level Jacksonville Center
01:10PM 31.9278 -78.2739 North 441 507 41,000  Level Jacksonville Center
01:11PM 32.0483 -78.2556 North 441 507 41,000  Level Jacksonville Center
01:12PM 32.1683 -78.2272 11° North 441 507 41,000  Level Jacksonville Center
01:13PM 32.2953 -78.2158 North 441 507 41,000  Level Jacksonville Center
01:14PM 32.4153 -78.1925 North 446 513 41,000  Level Jacksonville Center
01:15PM 32.5397 -78.1714 North 446 513 41,000  Level Jacksonville Center
01:16PM 32.6644 -78.1525 North 446 513 41,000  Level Jacksonville Center
01:17PM 32.7886 -78.1311 North 446 513 41,000  Level Jacksonville Center
01:19PM 33.0861 -78.0869 North 465 535 41,000  Level Washington Center
01:20PM 33.2097 -78.0658 North 460 529 41,000  Level Washington Center
01:21PM 33.3353 -78.0447 North 454 522 41,000  Level Washington Center
01:22PM 33.4608 -78.0236 North 449 517 41,000  Level Washington Center
01:23PM 33.5864 -78.0047 North 449 517 41,000  Level Washington Center
01:24PM 33.7119 -77.9833 North 449 517 41,000  Level Washington Center
01:25PM 33.8333 -77.9644 North 449 517 41,000  Level Washington Center
01:26PM 33.9633 -77.9281 13° North 454 522 41,000  Level Washington Center
01:27PM 34.0928 -77.9292 360° North 454 522 41,000 -660 Level Washington Center
01:28PM 34.2403 -77.9583 351° North 494 568 39,700 -1,020 Descending Washington Center
01:29PM 34.3672 -77.9772 353° North 469 540 39,000 -840 Descending Washington Center
01:30PM 34.4964 -77.9883 356° North 463 533 38,100 -1,200 Descending Washington Center
01:31PM 34.6278 -77.9847 North 463 533 36,700 -1,440 Descending Washington Center
01:32PM 34.7614 -77.9761 North 463 533 35,300 -1,440 Descending Washington Center
01:33PM 34.8972 -77.9675 North 482 555 33,900 -1,200 Descending Washington Center
01:34PM 35.0350 -77.9614 North 487 560 32,900 -480 Descending Washington Center
01:35PM 35.1750 -77.9553 North 487 560 33,000  Climbing Washington Center
01:36PM 35.3128 -77.9517 North 493 567 33,000  Level Washington Center
01:37PM 35.4467 -77.9378 North 493 567 33,000  Level Washington Center
01:38PM 35.5844 -77.9289 North 488 562 33,000 -480 Level Washington Center
01:39PM 35.7181 -77.9225 North 488 562 32,100 -1,140 Descending Washington Center
01:40PM 35.8519 -77.9164 North 483 556 30,800 -1,380 Descending Washington Center
01:41PM 35.9897 -77.9100 North 483 556 29,400 -1,320 Descending Washington Center
01:42PM 36.1128 -77.9033 North 483 556 28,200 -1,200 Descending Washington Center
01:43PM 36.2611 -77.8975 North 483 556 27,000 -600 Descending Washington Center
01:44PM 36.3803 -77.8906 North 478 550 27,000  Level Washington Center
01:45PM 36.5139 -77.8842 North 478 550 27,000 -600 Level Washington Center
01:46PM 36.6406 -77.9217 347° North 473 544 25,800 -1,500 Descending Washington Center
01:47PM 36.7625 -77.9667 344° North 468 539 24,100 -1,740 Descending Washington Center
01:48PM 36.8808 -78.0067 345° North 448 516 22,400 -1,560 Descending Washington Center
01:49PM 36.9947 -78.0467 344° North 434 499 21,000 -900 Descending Washington Center
01:50PM 37.1086 -78.0869 344° North 423 487 20,700 -540 Descending Washington Center
01:51PM 37.2244 -78.1272 345° North 423 487 20,000 -360 Descending Washington Center
01:52PM 37.3550 -78.1706 345° North 431 496 20,000 -540 Level Washington Center
01:53PM 37.4689 -78.2111 344° North 431 496 19,000 -1,500 Descending Washington Center
01:54PM 37.5806 -78.2517 344° North 425 489 17,100 -2,040 Descending Washington Center
01:55PM 37.6697 -78.2836 344° North 393 452 15,000 -2,160 Descending Washington Center
01:56PM 37.7689 -78.3186 344° North 374 430 12,800 -2,160 Descending Washington Center
01:57PM 37.8619 -78.3536 343° North 363 418 10,700 -2,400 Descending Washington Center
01:58PM 37.9508 -78.3858 344° North 327 376 8,100 -2,400 Descending Washington Center
01:59PM 37.9658 -78.4628 284° West 231 266 5,900 -2,340 Descending Washington Center
02:00PM 37.9144 -78.5161 219° Southwest 165 190 3,500 -1,320 Descending Washington Center
02:01PM 37.9444 -78.5672 307° West 153 176 3,300 -120 Descending Washington Center
02:02PM 37.9978 -78.5219 34° Northeast 127 146 3,300 -420 Level Washington Center
02:03PM 38.0569 -78.4900 23° Northeast 174 200 2,500 -840 Descending Washington Center
02:06PM 38.1333 -78.4500 25° Northeast  Level FlightAware Approximate
02:13PM 38.1386 -78.4529 25° Northeast  Level Estimated
02:14PM 38.1333 -78.4500 25° Northeast  Level FlightAware Approximate
02:15PM 38.1386 -78.4529 25° Northeast  Level Estimated
02:16PM 38.1333 -78.4500 25° Northeast  Level FlightAware Approximate
02:17PM 38.1386 -78.4529 25° Northeast  Level Estimated
02:18PM 38.1333 -78.4500 25° Northeast  Level FlightAware Approximate
02:19PM 38.1386 -78.4529 25° Northeast  Level Estimated
02:20PM 38.1333 -78.4500 25° Northeast  Level FlightAware Approximate
02:21PM 38.1386 -78.4529 25° Northeast  Level Estimated
02:22PM 38.1333 -78.4500 25° Northeast  Level FlightAware Approximate
02:23PM 38.1386 -78.4529 25° Northeast  Level Estimated